Time;durP1;ratioP1;P1;durP2;ratioP2;P2;SDS_P1;SDS_P2;PMS_P1;PMS_P2;Temp;Humidity;BMP_temperature;BMP_pressure;BME280_temperature;BME280_humidity;BME280_pressure;Samples;Min_cycle;Max_cycle;Signal;HPM_P1;HPM_P2
2023/07/09 00:01:52;;;;;;;20.60;14.25;;;25.90;72.00;;;;;;5112226;28;20021;-76
2023/07/09 00:04:19;;;;;;;21.42;14.15;;;25.90;72.30;;;;;;5116208;28;20046;-77
2023/07/09 00:06:45;;;;;;;24.30;13.55;;;25.90;72.50;;;;;;5117536;28;20108;-78
2023/07/09 00:09:16;;;;;;;21.90;14.35;;;25.90;72.60;;;;;;5117597;28;20055;-77
2023/07/09 00:11:43;;;;;;;23.53;13.93;;;26.00;73.00;;;;;;5117512;28;20016;-77
2023/07/09 00:14:10;;;;;;;18.58;13.65;;;25.90;72.80;;;;;;5116481;28;20031;-78
2023/07/09 00:16:37;;;;;;;21.02;13.73;;;25.90;72.80;;;;;;5116445;28;20035;-75
2023/07/09 00:19:05;;;;;;;20.48;14.40;;;25.80;72.80;;;;;;5117327;28;20043;-75
2023/07/09 00:21:33;;;;;;;21.15;15.18;;;25.80;73.00;;;;;;5116248;28;20055;-76
2023/07/09 00:24:04;;;;;;;22.02;14.68;;;25.80;73.10;;;;;;5117257;28;20094;-75
2023/07/09 00:26:32;;;;;;;21.98;14.40;;;25.70;73.20;;;;;;5116185;28;20024;-76
2023/07/09 00:28:58;;;;;;;20.83;13.98;;;25.70;73.40;;;;;;5117118;28;20045;-75
2023/07/09 00:31:24;;;;;;;20.65;15.10;;;25.70;73.60;;;;;;5117115;28;20046;-75
2023/07/09 00:33:50;;;;;;;22.77;14.95;;;25.60;73.90;;;;;;5116022;28;20024;-76
2023/07/09 00:36:28;;;;;;;22.95;14.50;;;25.60;74.10;;;;;;5099031;28;20058;-75
2023/07/09 00:38:54;;;;;;;18.65;14.40;;;25.60;74.00;;;;;;5115920;28;20052;-75
2023/07/09 00:41:22;;;;;;;23.23;14.73;;;25.60;73.70;;;;;;5098850;28;20050;-76
2023/07/09 00:43:49;;;;;;;23.95;14.57;;;25.50;73.70;;;;;;5116856;28;20031;-75
2023/07/09 00:46:37;;;;;;;21.90;14.48;;;25.50;73.90;;;;;;5115784;28;20020;-75
2023/07/09 00:49:07;;;;;;;22.55;14.32;;;25.50;74.00;;;;;;5116659;28;20425;-76
2023/07/09 00:51:41;;;;;;;22.23;13.95;;;25.50;74.10;;;;;;5116875;28;20352;-76
2023/07/09 00:54:39;;;;;;;24.52;15.27;;;25.50;74.10;;;;;;5116686;28;20028;-75
2023/07/09 00:57:12;;;;;;;19.20;13.65;;;25.40;73.90;;;;;;5115961;28;20095;-76
2023/07/09 00:59:40;;;;;;;22.33;15.40;;;25.30;74.10;;;;;;5116617;28;20020;-75
2023/07/09 01:02:07;;;;;;;22.83;15.63;;;25.30;74.50;;;;;;5115418;28;20028;-75
2023/07/09 01:04:34;;;;;;;23.23;15.50;;;25.20;74.60;;;;;;5115428;28;20024;-76
2023/07/09 01:07:00;;;;;;;21.17;14.98;;;25.20;74.90;;;;;;5116418;28;20048;-75
2023/07/09 01:09:26;;;;;;;22.73;15.55;;;25.30;74.90;;;;;;5116532;28;20024;-78
2023/07/09 01:11:56;;;;;;;21.90;16.40;;;25.30;74.30;;;;;;5115335;28;20027;-77
2023/07/09 01:14:24;;;;;;;24.60;16.15;;;25.20;73.90;;;;;;5097951;28;20032;-75
2023/07/09 01:16:57;;;;;;;23.83;15.48;;;25.20;74.00;;;;;;5114859;28;20024;-75
2023/07/09 01:19:28;;;;;;;28.27;16.50;;;25.10;73.70;;;;;;5116255;28;20023;-75
2023/07/09 01:22:01;;;;;;;21.67;16.35;;;25.10;73.60;;;;;;5116109;28;20106;-75
2023/07/09 01:24:45;;;;;;;25.92;17.13;;;25.20;73.60;;;;;;5115137;28;20039;-75
2023/07/09 01:27:11;;;;;;;23.45;16.42;;;25.20;73.50;;;;;;5116140;28;20033;-75
2023/07/09 01:29:38;;;;;;;23.95;16.45;;;25.20;73.80;;;;;;5115061;28;20032;-75
2023/07/09 01:32:06;;;;;;;26.80;16.98;;;25.20;73.80;;;;;;5114855;28;20513;-75
2023/07/09 01:34:32;;;;;;;19.73;14.80;;;25.20;73.90;;;;;;5114827;28;20032;-75
2023/07/09 01:36:58;;;;;;;21.95;15.02;;;25.20;73.70;;;;;;5115845;28;20087;-75
2023/07/09 01:39:25;;;;;;;18.30;14.07;;;25.10;73.40;;;;;;5115664;28;20097;-75
2023/07/09 01:41:51;;;;;;;22.75;14.57;;;25.00;73.40;;;;;;5115715;28;20025;-75
2023/07/09 01:44:17;;;;;;;22.30;15.05;;;25.00;73.70;;;;;;5114712;28;20024;-75
2023/07/09 01:46:43;;;;;;;18.52;13.82;;;24.90;74.00;;;;;;5115575;28;20075;-75
2023/07/09 01:49:09;;;;;;;21.00;14.48;;;24.90;74.10;;;;;;5115628;28;20036;-75
2023/07/09 01:51:36;;;;;;;21.58;15.05;;;24.90;74.10;;;;;;5114688;28;20054;-75
2023/07/09 01:54:02;;;;;;;24.70;15.73;;;24.90;74.20;;;;;;5097961;28;20027;-77
2023/07/09 01:56:29;;;;;;;21.50;15.73;;;24.90;74.40;;;;;;5114419;28;20025;-78
2023/07/09 01:59:01;;;;;;;22.27;15.88;;;24.80;74.60;;;;;;5114421;28;20028;-75
2023/07/09 02:01:29;;;;;;;19.13;14.80;;;24.80;75.60;;;;;;5114509;28;20043;-75
2023/07/09 02:03:54;;;;;;;23.30;15.20;;;24.70;74.80;;;;;;5114306;28;20034;-75
2023/07/09 02:06:20;;;;;;;23.92;15.70;;;24.70;75.10;;;;;;5115255;28;20032;-76
2023/07/09 02:08:46;;;;;;;23.48;15.52;;;24.80;75.10;;;;;;5097391;28;20048;-75
2023/07/09 02:11:11;;;;;;;21.75;14.75;;;24.80;75.00;;;;;;5114105;28;20085;-75
2023/07/09 02:13:37;;;;;;;20.58;14.10;;;24.70;74.50;;;;;;5097275;28;20055;-76
2023/07/09 02:16:03;;;;;;;20.83;15.18;;;24.70;74.20;;;;;;5115202;28;20467;-75
2023/07/09 02:18:29;;;;;;;19.33;15.07;;;24.60;74.50;;;;;;5115088;28;20028;-76
2023/07/09 02:20:55;;;;;;;24.02;15.43;;;24.50;74.90;;;;;;5114999;28;20024;-75
2023/07/09 02:23:25;;;;;;;20.08;14.50;;;24.50;75.10;;;;;;5113903;28;20024;-75
2023/07/09 02:25:51;;;;;;;22.00;15.77;;;24.50;75.30;;;;;;5114520;28;20028;-76
2023/07/09 02:28:16;;;;;;;20.98;15.85;;;24.50;75.40;;;;;;5113948;28;20024;-76
2023/07/09 02:30:42;;;;;;;21.90;15.38;;;24.40;75.40;;;;;;5113767;28;20020;-75
2023/07/09 02:33:07;;;;;;;22.10;16.38;;;24.40;75.40;;;;;;5080208;28;20031;-76
2023/07/09 02:35:35;;;;;;;22.05;16.23;;;24.50;75.40;;;;;;5113594;28;20036;-76
2023/07/09 02:38:01;;;;;;;24.27;16.52;;;24.50;75.20;;;;;;5114474;28;20036;-75
2023/07/09 02:40:27;;;;;;;24.88;16.80;;;24.50;75.20;;;;;;5113626;28;20038;-75
2023/07/09 02:42:52;;;;;;;28.52;18.08;;;24.40;75.50;;;;;;5114610;28;20036;-75
2023/07/09 02:45:18;;;;;;;26.55;17.13;;;24.40;75.70;;;;;;5114427;28;20032;-76
2023/07/09 02:47:43;;;;;;;23.88;17.02;;;24.40;75.80;;;;;;5113574;28;20048;-75
2023/07/09 02:50:10;;;;;;;24.25;16.52;;;24.30;75.80;;;;;;5113531;28;20028;-75
2023/07/09 02:52:36;;;;;;;21.02;16.40;;;24.30;75.80;;;;;;5113578;28;20419;-75
2023/07/09 02:55:01;;;;;;;23.52;17.23;;;24.30;75.60;;;;;;5096328;28;20036;-75
2023/07/09 02:57:27;;;;;;;25.52;17.52;;;24.20;75.80;;;;;;5113209;28;20047;-75
2023/07/09 02:59:53;;;;;;;25.15;17.52;;;24.20;76.40;;;;;;5114270;28;20028;-76
2023/07/09 03:02:18;;;;;;;25.60;18.33;;;24.10;76.20;;;;;;5113039;28;20032;-75
2023/07/09 03:04:44;;;;;;;26.85;17.58;;;24.10;76.50;;;;;;5113248;28;20024;-75
2023/07/09 03:07:09;;;;;;;24.13;16.95;;;24.10;76.40;;;;;;5096171;28;20455;-75
2023/07/09 03:09:35;;;;;;;23.05;16.63;;;24.10;76.50;;;;;;5096245;28;20016;-76
2023/07/09 03:12:01;;;;;;;22.95;15.95;;;24.00;76.30;;;;;;5113108;28;20042;-75
2023/07/09 03:14:26;;;;;;;24.42;16.60;;;24.00;76.30;;;;;;5079356;28;20032;-75
2023/07/09 03:16:52;;;;;;;25.40;16.17;;;24.00;76.50;;;;;;5113099;28;20062;-76
2023/07/09 03:19:18;;;;;;;26.15;16.58;;;23.90;76.30;;;;;;5113861;28;20103;-76
2023/07/09 03:21:43;;;;;;;20.40;16.05;;;23.90;76.40;;;;;;5112788;28;20095;-75
2023/07/09 03:24:09;;;;;;;25.48;16.42;;;23.90;76.60;;;;;;5112849;28;20111;-75
2023/07/09 03:26:35;;;;;;;24.10;17.77;;;23.80;76.60;;;;;;5113851;28;20075;-77
2023/07/09 03:29:00;;;;;;;22.75;17.00;;;23.80;77.10;;;;;;5113829;28;20031;-77
2023/07/09 03:31:26;;;;;;;23.65;17.40;;;23.80;77.20;;;;;;5112664;28;20032;-75
2023/07/09 03:33:52;;;;;;;21.90;16.23;;;23.70;77.20;;;;;;5113658;28;20029;-75
2023/07/09 03:36:22;;;;;;;23.63;16.13;;;23.80;77.50;;;;;;5113640;28;20039;-75
2023/07/09 03:38:48;;;;;;;21.77;15.55;;;23.70;77.30;;;;;;5111650;28;20051;-76
2023/07/09 03:41:14;;;;;;;23.13;16.48;;;23.70;77.20;;;;;;5112590;28;20032;-78
2023/07/09 03:43:39;;;;;;;20.65;15.80;;;23.70;77.20;;;;;;5113673;28;20032;-77
2023/07/09 03:46:05;;;;;;;21.27;16.02;;;23.60;77.40;;;;;;5113599;28;20027;-77
2023/07/09 03:48:30;;;;;;;22.23;15.65;;;23.60;77.70;;;;;;5095531;28;20464;-77
2023/07/09 03:50:56;;;;;;;20.60;14.98;;;23.60;77.90;;;;;;5112490;28;20091;-77
2023/07/09 03:53:22;;;;;;;20.40;15.48;;;23.60;77.70;;;;;;5113471;28;20028;-75
2023/07/09 03:55:53;;;;;;;21.73;15.85;;;23.60;77.60;;;;;;5113418;28;20032;-75
2023/07/09 03:58:18;;;;;;;20.17;14.80;;;23.50;77.50;;;;;;5112426;28;20032;-75
2023/07/09 04:00:44;;;;;;;23.10;15.30;;;23.50;77.60;;;;;;5112354;28;20035;-75
2023/07/09 04:03:10;;;;;;;24.05;15.93;;;23.50;77.70;;;;;;5113425;28;20020;-75
2023/07/09 04:05:35;;;;;;;23.35;15.40;;;23.50;77.90;;;;;;5112302;28;20070;-76
2023/07/09 04:08:01;;;;;;;20.73;15.57;;;23.50;77.90;;;;;;5095410;28;20028;-76
2023/07/09 04:10:27;;;;;;;19.38;14.95;;;23.50;78.10;;;;;;5113369;28;20029;-75
2023/07/09 04:12:53;;;;;;;21.75;16.20;;;23.50;78.20;;;;;;5095425;28;20049;-77
2023/07/09 04:15:19;;;;;;;22.42;17.13;;;23.50;78.50;;;;;;5112227;28;20035;-76
2023/07/09 04:17:44;;;;;;;25.42;16.42;;;23.40;78.50;;;;;;5113220;28;20064;-75
2023/07/09 04:20:10;;;;;;;26.30;16.83;;;23.30;78.30;;;;;;5113188;28;20049;-75
2023/07/09 04:22:37;;;;;;;23.95;17.73;;;23.20;78.90;;;;;;5095342;28;20059;-76
2023/07/09 04:25:05;;;;;;;22.50;16.55;;;23.10;79.40;;;;;;5112234;28;20023;-76
2023/07/09 04:27:31;;;;;;;23.95;16.98;;;23.20;80.00;;;;;;5113313;28;20023;-76
2023/07/09 04:29:57;;;;;;;25.63;17.77;;;23.20;80.00;;;;;;5113087;28;20464;-76
2023/07/09 04:32:22;;;;;;;29.63;19.73;;;23.10;80.20;;;;;;5112358;28;20024;-76
2023/07/09 04:34:48;;;;;;;23.80;17.25;;;23.20;80.30;;;;;;5112990;28;20503;-76
2023/07/09 04:37:17;;;;;;;27.58;18.17;;;23.20;80.40;;;;;;5112861;28;20039;-76
2023/07/09 04:39:44;;;;;;;24.13;18.10;;;23.30;80.70;;;;;;5112063;28;20051;-76
2023/07/09 04:42:14;;;;;;;26.55;19.63;;;23.30;80.80;;;;;;5112962;28;20075;-76
2023/07/09 04:44:41;;;;;;;27.13;18.10;;;23.30;81.00;;;;;;5111915;28;20016;-76
2023/07/09 04:47:07;;;;;;;28.25;18.90;;;23.40;80.90;;;;;;5111886;28;20020;-76
2023/07/09 04:49:33;;;;;;;29.77;18.98;;;23.50;81.20;;;;;;5114472;28;20084;-76
2023/07/09 04:51:59;;;;;;;26.35;18.90;;;23.50;81.00;;;;;;5116761;28;20028;-76
2023/07/09 04:54:26;;;;;;;24.13;19.48;;;23.60;81.00;;;;;;5098819;28;20032;-76
2023/07/09 04:56:51;;;;;;;25.60;19.63;;;23.60;81.10;;;;;;5115744;28;20102;-76
2023/07/09 04:59:17;;;;;;;29.42;19.88;;;23.70;81.10;;;;;;5116574;28;20115;-76
2023/07/09 05:01:42;;;;;;;25.45;20.33;;;23.70;81.10;;;;;;5098566;28;20031;-76
2023/07/09 05:04:08;;;;;;;29.30;20.65;;;23.70;81.50;;;;;;5098515;28;20035;-75
2023/07/09 05:06:34;;;;;;;28.60;20.65;;;23.70;81.50;;;;;;5115530;28;20039;-76
2023/07/09 05:09:00;;;;;;;28.00;22.38;;;23.80;81.50;;;;;;5116512;28;20052;-75
2023/07/09 05:11:26;;;;;;;33.13;24.35;;;23.80;81.60;;;;;;5115352;28;20031;-75
2023/07/09 05:13:51;;;;;;;30.08;24.65;;;23.80;81.50;;;;;;5115407;28;20020;-75
2023/07/09 05:16:17;;;;;;;33.85;27.55;;;23.90;81.60;;;;;;5115353;28;20445;-76
2023/07/09 05:18:45;;;;;;;38.78;29.88;;;23.90;81.30;;;;;;5116208;28;20087;-75
2023/07/09 05:21:11;;;;;;;39.80;30.90;;;23.90;81.20;;;;;;5098121;28;20032;-77
2023/07/09 05:23:36;;;;;;;36.33;30.90;;;23.80;81.20;;;;;;5115102;28;20024;-77
2023/07/09 05:26:03;;;;;;;39.42;30.33;;;23.80;81.30;;;;;;5115158;28;20060;-78
2023/07/09 05:28:30;;;;;;;38.55;31.27;;;23.80;81.50;;;;;;5115127;28;20028;-78
2023/07/09 05:30:55;;;;;;;39.72;33.20;;;23.80;81.70;;;;;;5116027;28;20024;-77
2023/07/09 05:33:22;;;;;;;45.13;35.08;;;23.80;81.70;;;;;;5098205;28;20031;-77
2023/07/09 05:35:48;;;;;;;41.58;34.13;;;23.90;82.00;;;;;;5115918;28;20050;-79
2023/07/09 05:38:14;;;;;;;47.03;33.33;;;23.80;81.80;;;;;;5115695;28;20044;-78
2023/07/09 05:40:40;;;;;;;35.05;29.70;;;23.90;81.80;;;;;;5115849;28;20024;-77
2023/07/09 05:43:06;;;;;;;36.92;28.20;;;23.90;81.50;;;;;;5115690;28;20025;-78
2023/07/09 05:45:32;;;;;;;34.53;27.58;;;23.90;81.30;;;;;;5115789;28;20034;-79
2023/07/09 05:47:59;;;;;;;36.05;27.35;;;23.90;81.20;;;;;;5115657;28;20024;-77
2023/07/09 05:50:26;;;;;;;33.22;26.85;;;23.90;81.40;;;;;;5114607;28;20020;-77
2023/07/09 05:52:51;;;;;;;35.05;25.98;;;23.90;81.40;;;;;;5115605;28;20032;-76
2023/07/09 05:55:17;;;;;;;37.33;27.40;;;23.90;81.40;;;;;;5115584;28;20463;-77
2023/07/09 05:57:43;;;;;;;35.80;28.42;;;23.90;81.60;;;;;;5114527;28;20046;-77
2023/07/09 06:00:09;;;;;;;34.72;27.58;;;24.00;82.20;;;;;;5115252;28;20032;-77
2023/07/09 06:02:35;;;;;;;35.88;28.90;;;24.10;82.70;;;;;;5113674;28;20032;-76
2023/07/09 06:05:01;;;;;;;38.95;29.83;;;24.10;82.40;;;;;;5115313;28;20031;-75
2023/07/09 06:07:27;;;;;;;33.92;28.73;;;24.20;82.20;;;;;;5115251;28;20036;-76
2023/07/09 06:09:53;;;;;;;40.35;28.05;;;24.30;81.70;;;;;;5114174;28;20027;-76
2023/07/09 06:12:19;;;;;;;39.08;28.48;;;24.40;81.50;;;;;;5114227;28;20083;-77
2023/07/09 06:14:46;;;;;;;35.97;26.42;;;24.40;81.30;;;;;;5115065;28;20032;-76
2023/07/09 06:17:12;;;;;;;35.20;25.95;;;24.50;81.20;;;;;;5115102;28;20054;-76
2023/07/09 06:19:38;;;;;;;35.65;26.95;;;24.60;81.10;;;;;;5115026;28;20028;-76
2023/07/09 06:22:04;;;;;;;39.85;28.58;;;24.70;81.60;;;;;;5113941;28;20096;-77
2023/07/09 06:24:30;;;;;;;38.38;28.92;;;24.70;81.90;;;;;;5114946;28;20020;-76
2023/07/09 06:26:55;;;;;;;37.22;28.67;;;24.80;81.40;;;;;;5114837;28;20554;-77
2023/07/09 06:29:21;;;;;;;33.83;27.70;;;24.80;81.40;;;;;;5114846;28;20051;-77
2023/07/09 06:31:46;;;;;;;38.20;27.95;;;24.90;81.50;;;;;;5096904;28;20028;-76
2023/07/09 06:34:12;;;;;;;38.53;27.85;;;24.90;81.20;;;;;;5114765;28;20035;-76
2023/07/09 06:36:38;;;;;;;36.28;27.98;;;25.00;81.30;;;;;;5114746;28;20367;-74
2023/07/09 06:39:05;;;;;;;38.80;28.80;;;25.00;81.70;;;;;;5114472;28;20052;-77
2023/07/09 06:41:32;;;;;;;34.38;26.40;;;25.10;81.90;;;;;;5113598;28;20035;-76
2023/07/09 06:43:58;;;;;;;36.80;28.85;;;25.10;81.50;;;;;;5114583;28;20031;-76
2023/07/09 06:46:23;;;;;;;36.95;27.98;;;25.20;82.20;;;;;;5114540;28;20020;-75
2023/07/09 06:48:49;;;;;;;34.55;27.35;;;25.20;81.90;;;;;;5114484;28;20479;-75
2023/07/09 06:51:15;;;;;;;36.72;28.60;;;25.20;81.90;;;;;;5096396;28;20024;-76
2023/07/09 06:53:42;;;;;;;36.45;26.35;;;25.30;82.40;;;;;;5114363;28;20028;-76
2023/07/09 06:56:08;;;;;;;32.83;25.50;;;25.40;82.00;;;;;;5113408;28;20012;-74
2023/07/09 06:58:36;;;;;;;31.60;22.38;;;25.40;81.80;;;;;;5113266;28;20051;-75
2023/07/09 07:01:03;;;;;;;33.47;23.63;;;25.50;81.20;;;;;;5114326;28;20024;-77
2023/07/09 07:03:29;;;;;;;34.95;25.45;;;25.50;81.30;;;;;;5114146;28;20016;-76
2023/07/09 07:05:54;;;;;;;33.42;24.63;;;25.60;80.80;;;;;;5113140;28;20111;-75
2023/07/09 07:08:22;;;;;;;34.17;22.77;;;25.70;81.00;;;;;;5114227;28;20459;-74
2023/07/09 07:10:49;;;;;;;31.25;21.08;;;25.70;81.40;;;;;;5114038;28;20018;-76
2023/07/09 07:13:15;;;;;;;31.95;21.88;;;25.80;80.90;;;;;;5113181;28;20091;-77
2023/07/09 07:15:41;;;;;;;28.20;20.45;;;25.80;80.30;;;;;;5114032;28;20078;-76
2023/07/09 07:18:07;;;;;;;30.58;20.75;;;25.90;80.00;;;;;;5113984;28;20029;-75
2023/07/09 07:20:33;;;;;;;28.15;20.80;;;26.00;79.60;;;;;;5113929;28;20024;-76
2023/07/09 07:22:59;;;;;;;26.42;18.73;;;26.10;80.50;;;;;;5113792;28;20111;-76
2023/07/09 07:25:25;;;;;;;31.92;21.10;;;26.20;80.50;;;;;;5112760;28;20024;-76
2023/07/09 07:27:50;;;;;;;27.50;20.65;;;26.20;80.40;;;;;;5113751;28;20046;-76
2023/07/09 07:30:17;;;;;;;30.42;20.85;;;26.30;80.80;;;;;;5112700;28;20486;-76
2023/07/09 07:32:45;;;;;;;28.50;19.98;;;26.30;79.70;;;;;;5112844;28;20035;-75
2023/07/09 07:35:11;;;;;;;30.17;19.75;;;26.40;79.90;;;;;;5112679;28;20034;-75
2023/07/09 07:37:37;;;;;;;27.90;20.90;;;26.40;79.60;;;;;;5113437;28;20059;-75
2023/07/09 07:40:04;;;;;;;29.30;20.52;;;26.50;79.30;;;;;;5113807;28;20032;-75
2023/07/09 07:42:30;;;;;;;25.20;18.55;;;26.60;79.50;;;;;;5113572;28;20083;-75
2023/07/09 07:44:56;;;;;;;28.05;17.35;;;26.70;79.90;;;;;;5112665;28;20024;-75
2023/07/09 07:47:21;;;;;;;26.58;17.88;;;26.80;79.40;;;;;;5112466;28;20027;-76
2023/07/09 07:49:47;;;;;;;21.73;16.25;;;26.80;78.70;;;;;;5095666;28;20040;-76
2023/07/09 07:52:13;;;;;;;22.65;15.10;;;26.90;79.10;;;;;;5113494;28;20022;-76
2023/07/09 07:54:39;;;;;;;20.00;15.02;;;26.90;78.20;;;;;;5113455;28;20384;-75
2023/07/09 07:57:05;;;;;;;20.35;14.65;;;27.00;78.20;;;;;;5113438;28;20046;-76
2023/07/09 07:59:34;;;;;;;16.85;12.07;;;27.10;77.90;;;;;;5113369;28;20099;-76
2023/07/09 08:02:00;;;;;;;18.05;12.20;;;27.10;75.40;;;;;;5113371;28;20020;-76
2023/07/09 08:04:26;;;;;;;17.40;11.23;;;27.20;75.80;;;;;;5113384;28;20443;-76
2023/07/09 08:06:52;;;;;;;16.67;10.88;;;27.30;75.80;;;;;;5113384;28;20025;-76
2023/07/09 08:09:18;;;;;;;20.45;11.40;;;27.40;76.40;;;;;;5113311;28;20020;-76
2023/07/09 08:11:43;;;;;;;17.85;11.45;;;27.40;76.00;;;;;;5113245;28;20479;-76
2023/07/09 08:14:10;;;;;;;17.33;11.73;;;27.50;74.30;;;;;;5113132;28;20039;-75
2023/07/09 08:16:35;;;;;;;15.63;11.15;;;27.60;74.60;;;;;;5112210;28;20082;-76
2023/07/09 08:19:01;;;;;;;18.42;10.05;;;27.60;73.70;;;;;;5095329;28;20020;-76
2023/07/09 08:21:27;;;;;;;17.20;9.90;;;27.70;74.70;;;;;;5113130;28;20028;-76
2023/07/09 08:23:52;;;;;;;24.58;10.52;;;27.80;74.70;;;;;;5113432;28;20032;-76
2023/07/09 08:26:18;;;;;;;14.45;10.15;;;28.00;75.10;;;;;;5117204;28;20024;-75
2023/07/09 08:28:44;;;;;;;15.23;9.48;;;28.00;74.60;;;;;;5117175;28;20084;-76
2023/07/09 08:31:09;;;;;;;18.38;10.50;;;28.10;73.40;;;;;;5117160;28;20028;-76
2023/07/09 08:33:36;;;;;;;15.85;10.15;;;28.10;72.90;;;;;;5116057;28;20052;-76
2023/07/09 08:36:02;;;;;;;13.50;7.88;;;28.10;73.30;;;;;;5117106;28;20024;-76
2023/07/09 08:38:27;;;;;;;16.42;8.27;;;28.20;72.40;;;;;;5115821;28;20052;-76
2023/07/09 08:41:15;;;;;;;12.60;8.13;;;28.30;71.60;;;;;;5117050;28;20054;-76
2023/07/09 08:43:58;;;;;;;12.57;7.68;;;28.40;70.10;;;;;;5116968;28;20099;-76
2023/07/09 08:46:49;;;;;;;11.35;8.13;;;28.50;70.00;;;;;;5115860;28;20024;-76
2023/07/09 08:49:20;;;;;;;11.48;7.22;;;28.70;70.50;;;;;;5115720;28;20034;-76
2023/07/09 08:51:47;;;;;;;11.65;7.18;;;28.70;69.00;;;;;;5115764;28;20020;-76
2023/07/09 08:54:34;;;;;;;13.00;6.75;;;28.80;69.00;;;;;;5115799;28;20081;-76
2023/07/09 08:57:16;;;;;;;10.93;6.68;;;28.80;69.80;;;;;;5116849;28;20028;-76
2023/07/09 08:59:42;;;;;;;13.80;8.00;;;28.90;68.70;;;;;;5116690;28;20028;-76
2023/07/09 09:02:21;;;;;;;11.65;6.85;;;28.90;68.10;;;;;;5115471;28;20055;-76
2023/07/09 09:04:47;;;;;;;10.65;6.97;;;29.00;67.30;;;;;;5116566;28;20047;-76
2023/07/09 09:07:41;;;;;;;12.57;6.85;;;29.00;66.70;;;;;;5116595;28;20092;-76
2023/07/09 09:10:21;;;;;;;10.57;7.00;;;29.10;67.50;;;;;;5105385;28;20091;-76
2023/07/09 09:13:09;;;;;;;10.25;6.50;;;29.20;68.50;;;;;;5116400;28;20023;-76
2023/07/09 09:15:36;;;;;;;12.32;7.85;;;29.30;66.50;;;;;;5116448;28;20026;-75
2023/07/09 09:18:26;;;;;;;13.60;7.18;;;29.40;65.90;;;;;;5116284;28;20059;-76
2023/07/09 09:20:57;;;;;;;9.75;7.07;;;29.50;65.60;;;;;;5116301;28;20494;-76
2023/07/09 09:23:29;;;;;;;11.63;7.07;;;29.50;66.70;;;;;;5116215;28;20038;-76
2023/07/09 09:25:59;;;;;;;9.52;6.75;;;29.60;66.30;;;;;;5116163;28;20164;-75
2023/07/09 09:28:27;;;;;;;11.95;7.15;;;29.70;65.40;;;;;;5116223;28;20088;-75
2023/07/09 09:30:52;;;;;;;11.70;6.55;;;29.80;65.00;;;;;;5116037;28;20043;-76
2023/07/09 09:33:18;;;;;;;11.18;6.32;;;29.90;65.70;;;;;;5115914;28;20036;-76
2023/07/09 09:35:45;;;;;;;8.30;5.50;;;29.90;65.70;;;;;;5114029;28;20039;-76
2023/07/09 09:38:18;;;;;;;7.97;5.43;;;30.00;64.60;;;;;;5114642;28;20041;-76
2023/07/09 09:40:44;;;;;;;10.85;5.85;;;30.10;64.20;;;;;;5114847;28;20028;-75
2023/07/09 09:43:21;;;;;;;7.93;5.35;;;30.10;62.00;;;;;;5114795;28;20545;-76
2023/07/09 09:45:49;;;;;;;9.90;5.60;;;30.20;61.10;;;;;;5114859;28;20027;-76
2023/07/09 09:48:29;;;;;;;10.15;6.00;;;30.20;62.50;;;;;;5115705;28;20024;-76
2023/07/09 09:51:00;;;;;;;9.77;5.90;;;30.30;61.50;;;;;;5115672;28;20023;-76
2023/07/09 09:53:28;;;;;;;14.63;5.57;;;30.30;60.30;;;;;;5115751;28;20053;-76
2023/07/09 09:55:56;;;;;;;9.82;5.53;;;30.30;60.50;;;;;;5115656;28;20391;-75
2023/07/09 09:58:29;;;;;;;9.00;5.55;;;30.40;58.60;;;;;;5115635;28;20032;-75
2023/07/09 10:00:57;;;;;;;10.23;5.43;;;30.40;59.10;;;;;;5115600;28;20629;-76
2023/07/09 10:03:34;;;;;;;12.13;5.80;;;30.50;58.60;;;;;;5115438;28;20054;-76
2023/07/09 10:06:09;;;;;;;6.90;5.55;;;30.60;57.30;;;;;;5114435;28;20016;-76
2023/07/09 10:08:49;;;;;;;7.60;5.97;;;30.60;60.50;;;;;;5115474;28;20038;-75
2023/07/09 10:11:24;;;;;;;9.75;5.75;;;30.70;60.20;;;;;;5115366;28;20016;-75
2023/07/09 10:13:51;;;;;;;11.27;5.70;;;30.80;57.60;;;;;;5115325;28;20027;-76
2023/07/09 10:16:29;;;;;;;10.13;5.82;;;30.90;57.20;;;;;;5114188;28;20036;-76
2023/07/09 10:19:37;;;;;;;10.73;5.85;;;31.00;56.50;;;;;;5114278;28;20083;-76
2023/07/09 10:22:32;;;;;;;6.97;5.68;;;31.00;58.20;;;;;;5016561;28;20056;-76
2023/07/09 10:25:13;;;;;;;10.40;5.68;;;31.10;58.50;;;;;;5114347;28;20088;-76
2023/07/09 10:27:58;;;;;;;14.18;6.38;;;31.20;59.40;;;;;;5114140;28;20032;-76
2023/07/09 10:30:46;;;;;;;7.05;5.60;;;31.30;59.30;;;;;;5115175;28;20076;-76
2023/07/09 10:33:16;;;;;;;6.57;5.30;;;31.40;57.50;;;;;;5113997;28;20118;-76
2023/07/09 10:35:54;;;;;;;8.80;5.57;;;31.50;57.20;;;;;;5115122;28;20035;-76
2023/07/09 10:38:26;;;;;;;10.10;5.20;;;31.60;57.80;;;;;;5114649;28;20111;-76
2023/07/09 10:40:58;;;;;;;9.40;5.63;;;31.70;56.50;;;;;;5113719;28;20031;-76
2023/07/09 10:43:38;;;;;;;8.88;5.30;;;31.70;54.90;;;;;;5114654;28;20052;-76
2023/07/09 10:46:16;;;;;;;10.18;5.68;;;31.60;55.50;;;;;;5114659;28;20047;-76
2023/07/09 10:48:45;;;;;;;9.40;5.50;;;31.70;53.90;;;;;;5114350;28;20031;-75
2023/07/09 10:51:38;;;;;;;7.28;5.15;;;31.80;53.40;;;;;;5114529;28;20021;-75
2023/07/09 10:54:12;;;;;;;9.43;5.25;;;31.90;54.10;;;;;;5114480;28;20024;-76
2023/07/09 10:56:39;;;;;;;9.35;5.40;;;32.00;53.60;;;;;;5113436;28;20024;-75
2023/07/09 10:59:35;;;;;;;7.25;4.65;;;32.10;56.80;;;;;;5113473;28;20045;-76
2023/07/09 11:02:36;;;;;;;7.28;5.00;;;32.10;51.70;;;;;;5114388;28;20027;-75
2023/07/09 11:05:19;;;;;;;7.93;5.13;;;32.10;50.80;;;;;;5016032;28;20049;-76
2023/07/09 11:08:04;;;;;;;6.85;4.70;;;32.10;51.20;;;;;;5105226;28;20074;-76
2023/07/09 11:10:34;;;;;;;8.52;4.63;;;32.20;54.40;;;;;;5114279;28;20046;-75
2023/07/09 11:13:17;;;;;;;7.88;4.63;;;32.20;50.30;;;;;;5114237;28;20027;-76
2023/07/09 11:15:47;;;;;;;7.32;4.55;;;32.40;50.70;;;;;;5114353;28;20035;-76
2023/07/09 11:18:21;;;;;;;11.07;4.63;;;32.30;50.60;;;;;;5114125;28;20024;-74
2023/07/09 11:21:15;;;;;;;6.28;4.40;;;32.40;51.70;;;;;;5114087;28;20024;-75
2023/07/09 11:24:01;;;;;;;8.48;4.30;;;32.40;50.80;;;;;;5112951;28;20045;-74
2023/07/09 11:26:34;;;;;;;6.70;4.15;;;32.50;49.00;;;;;;5114013;28;20020;-74
2023/07/09 11:29:15;;;;;;;8.88;4.82;;;32.50;49.30;;;;;;5113987;28;20035;-75
2023/07/09 11:31:46;;;;;;;6.55;4.32;;;32.50;48.30;;;;;;5113988;28;20044;-75
2023/07/09 11:34:17;;;;;;;10.23;4.72;;;32.50;48.50;;;;;;5113864;28;20020;-75
2023/07/09 11:36:55;;;;;;;6.90;4.80;;;32.50;49.50;;;;;;5112917;28;20047;-75
2023/07/09 11:39:32;;;;;;;7.63;4.20;;;32.60;49.70;;;;;;5112481;28;20039;-76
2023/07/09 11:41:58;;;;;;;8.25;4.95;;;32.60;48.80;;;;;;5113703;28;20056;-76
2023/07/09 11:44:33;;;;;;;8.35;4.68;;;32.60;49.70;;;;;;5113747;28;20024;-75
2023/07/09 11:47:37;;;;;;;8.90;4.55;;;32.60;47.10;;;;;;5113669;28;20022;-75
2023/07/09 11:50:22;;;;;;;7.15;4.63;;;32.60;47.30;;;;;;5113815;28;20020;-75
2023/07/09 11:52:54;;;;;;;7.22;4.35;;;32.60;48.40;;;;;;5112683;28;20024;-75
2023/07/09 11:55:29;;;;;;;;;;;32.40;50.70;;;;;;5114027;28;20048;-75
2023/07/09 11:58:01;;;;;;;7.53;4.00;;;32.40;46.80;;;;;;5113737;28;19915;-75
2023/07/09 12:00:42;;;;;;;5.93;4.32;;;32.30;49.90;;;;;;5112824;28;20024;-75
2023/07/09 12:03:16;;;;;;;6.85;4.28;;;32.30;49.70;;;;;;5113418;28;20036;-75
2023/07/09 12:05:51;;;;;;;8.88;4.53;;;32.20;48.30;;;;;;5112525;28;20044;-75
2023/07/09 12:08:17;;;;;;;7.47;4.15;;;32.20;48.60;;;;;;5112414;28;20012;-75
2023/07/09 12:10:44;;;;;;;6.40;4.20;;;32.30;47.80;;;;;;5112452;28;20024;-75
2023/07/09 12:13:12;;;;;;;7.25;4.20;;;32.30;47.80;;;;;;5113489;28;20046;-75
2023/07/09 12:15:39;;;;;;;6.45;4.07;;;32.20;49.50;;;;;;5113372;28;20041;-74
2023/07/09 12:18:14;;;;;;;6.53;4.25;;;32.30;50.20;;;;;;5113316;28;20024;-74
2023/07/09 12:20:41;;;;;;;5.82;3.88;;;32.30;49.50;;;;;;5113294;28;20032;-74
2023/07/09 12:23:31;;;;;;;8.48;4.60;;;32.20;47.20;;;;;;5112339;28;20345;-75
2023/07/09 12:26:01;;;;;;;6.28;4.72;;;32.10;46.80;;;;;;5102735;28;20032;-74
2023/07/09 12:28:28;;;;;;;8.15;5.07;;;32.20;51.30;;;;;;5113245;28;20020;-76
2023/07/09 12:30:54;;;;;;;7.25;5.00;;;32.20;52.10;;;;;;5112219;28;20020;-75
2023/07/09 12:33:24;;;;;;;7.07;5.25;;;32.10;50.60;;;;;;5113106;28;20028;-76
2023/07/09 12:36:03;;;;;;;7.10;5.25;;;32.10;51.80;;;;;;5113216;28;20040;-75
2023/07/09 12:38:42;;;;;;;8.43;5.10;;;32.10;51.80;;;;;;5113063;28;20054;-75
2023/07/09 12:41:36;;;;;;;8.30;5.43;;;32.10;53.00;;;;;;5113264;28;20028;-75
2023/07/09 12:44:03;;;;;;;7.50;5.22;;;32.10;52.50;;;;;;5111391;28;20066;-75
2023/07/09 12:46:28;;;;;;;7.25;5.38;;;32.10;53.60;;;;;;5112048;28;20024;-75